Time;durP1;ratioP1;P1;durP2;ratioP2;P2;SDS_P1;SDS_P2;PMS_P1;PMS_P2;Temp;Humidity;BMP_temperature;BMP_pressure;BME280_temperature;BME280_humidity;BME280_pressure;Samples;Min_cycle;Max_cycle;Signal;HPM_P1;HPM_P2
2022/01/03 00:00:19;;;;;;;33.78;24.83;;;12.00;96.60;;;;;;5033280;28;20029;-63
2022/01/03 00:02:46;;;;;;;30.10;23.00;;;12.00;96.60;;;;;;5033384;28;20398;-63
2022/01/03 00:05:12;;;;;;;32.50;24.33;;;12.00;96.50;;;;;;5033048;28;20045;-65
2022/01/03 00:07:40;;;;;;;32.35;24.35;;;12.00;96.60;;;;;;5033078;28;20522;-63
2022/01/03 00:10:07;;;;;;;32.33;25.30;;;12.00;96.60;;;;;;5033258;28;20021;-65
2022/01/03 00:12:33;;;;;;;33.60;25.15;;;12.00;96.60;;;;;;5033301;28;20026;-64
2022/01/03 00:15:00;;;;;;;36.33;26.67;;;11.90;96.80;;;;;;5015225;28;20028;-65
2022/01/03 00:17:26;;;;;;;34.88;25.55;;;11.90;96.70;;;;;;5032821;28;20026;-64
2022/01/03 00:19:51;;;;;;;36.00;26.95;;;11.90;96.80;;;;;;5015383;28;20040;-63
2022/01/03 00:22:21;;;;;;;34.50;26.13;;;11.90;96.90;;;;;;5032084;28;20050;-64
2022/01/03 00:25:01;;;;;;;37.70;27.23;;;11.90;96.90;;;;;;5015356;28;20437;-66
2022/01/03 00:27:40;;;;;;;34.40;26.90;;;11.80;97.00;;;;;;5015028;28;20037;-66
2022/01/03 00:30:07;;;;;;;37.10;27.80;;;11.80;97.00;;;;;;5032860;28;20022;-63
2022/01/03 00:32:37;;;;;;;35.25;28.27;;;11.80;96.90;;;;;;5032906;28;20025;-64
2022/01/03 00:35:04;;;;;;;37.72;28.70;;;11.80;96.90;;;;;;5015045;28;20029;-64
2022/01/03 00:37:31;;;;;;;40.03;29.63;;;11.80;97.10;;;;;;5032466;28;20034;-65
2022/01/03 00:39:59;;;;;;;39.63;30.17;;;11.80;97.20;;;;;;5032989;28;20032;-64
2022/01/03 00:42:24;;;;;;;37.90;30.10;;;11.70;97.20;;;;;;5032518;28;20424;-64
2022/01/03 00:44:52;;;;;;;39.22;30.52;;;11.70;97.30;;;;;;5015155;28;20063;-68
2022/01/03 00:47:19;;;;;;;41.60;30.67;;;11.70;97.40;;;;;;5032761;28;20018;-63
2022/01/03 00:49:45;;;;;;;39.53;30.45;;;11.70;97.40;;;;;;5032676;28;20021;-64
2022/01/03 00:52:11;;;;;;;39.50;30.40;;;11.70;97.40;;;;;;5032530;28;20512;-64
2022/01/03 00:54:36;;;;;;;41.22;30.15;;;11.70;97.50;;;;;;5036589;28;20030;-65
2022/01/03 00:57:07;;;;;;;40.28;30.10;;;11.70;97.50;;;;;;5036635;28;20033;-64
2022/01/03 00:59:44;;;;;;;38.63;30.10;;;11.70;97.60;;;;;;5036371;28;20034;-64
2022/01/03 01:02:11;;;;;;;40.38;29.50;;;11.60;97.50;;;;;;5036396;28;20021;-65
2022/01/03 01:04:37;;;;;;;38.15;28.20;;;11.60;97.50;;;;;;5036425;28;20037;-64
2022/01/03 01:07:06;;;;;;;35.22;28.02;;;11.50;97.50;;;;;;5036637;28;20049;-65
2022/01/03 01:09:34;;;;;;;42.05;29.33;;;11.50;97.60;;;;;;5036471;28;20079;-64
2022/01/03 01:12:01;;;;;;;39.97;29.08;;;11.50;97.60;;;;;;5036174;28;20032;-64
2022/01/03 01:14:28;;;;;;;36.80;28.98;;;11.50;97.50;;;;;;5036470;28;20037;-66
2022/01/03 01:16:55;;;;;;;41.35;29.98;;;11.60;97.70;;;;;;5036478;28;20025;-64
2022/01/03 01:19:24;;;;;;;38.35;27.52;;;11.60;97.60;;;;;;5036471;28;20030;-64
2022/01/03 01:21:51;;;;;;;37.10;28.23;;;11.60;97.60;;;;;;5018563;28;20493;-64
2022/01/03 01:24:20;;;;;;;38.42;27.98;;;11.60;97.60;;;;;;5036445;28;20498;-64
2022/01/03 01:29:30;;;;;;;39.00;28.08;;;11.50;97.50;;;;;;5036645;28;20060;-63
2022/01/03 01:32:01;;;;;;;37.83;28.17;;;11.40;97.60;;;;;;5036280;28;20017;-63
2022/01/03 01:34:29;;;;;;;40.10;27.67;;;11.40;97.70;;;;;;5036158;28;20078;-65
2022/01/03 01:36:58;;;;;;;34.42;26.50;;;11.50;97.80;;;;;;5036420;28;20017;-64
2022/01/03 01:39:26;;;;;;;36.25;27.45;;;11.50;97.80;;;;;;5018325;28;20034;-63
2022/01/03 01:41:59;;;;;;;37.33;27.35;;;11.50;97.70;;;;;;5035973;28;20030;-64
2022/01/03 01:44:26;;;;;;;35.65;27.55;;;11.50;97.60;;;;;;5018582;28;20018;-64
2022/01/03 01:46:54;;;;;;;34.65;25.95;;;11.50;97.60;;;;;;5036105;28;20052;-63
2022/01/03 01:49:23;;;;;;;34.90;26.95;;;11.50;97.70;;;;;;5035563;28;20021;-67
2022/01/03 01:51:57;;;;;;;35.70;26.38;;;11.50;97.70;;;;;;5035603;28;20038;-64
2022/01/03 01:54:33;;;;;;;34.92;25.33;;;11.60;97.70;;;;;;5035515;28;20052;-63
2022/01/03 01:57:16;;;;;;;35.10;27.38;;;11.60;97.50;;;;;;5035990;28;20383;-63
2022/01/03 01:59:44;;;;;;;33.72;25.90;;;11.70;97.70;;;;;;5035339;28;20391;-65
2022/01/03 02:02:15;;;;;;;36.78;26.83;;;11.70;97.60;;;;;;5035289;28;20035;-65
2022/01/03 02:04:47;;;;;;;37.45;27.88;;;11.60;97.60;;;;;;5035050;28;20040;-65
2022/01/03 02:07:28;;;;;;;35.10;26.60;;;11.60;97.60;;;;;;5035268;28;20073;-66
2022/01/03 02:10:06;;;;;;;36.03;27.27;;;11.60;97.50;;;;;;5035068;28;20029;-65
2022/01/03 02:12:52;;;;;;;35.40;26.73;;;11.60;97.70;;;;;;5035406;28;20021;-64
2022/01/03 02:15:19;;;;;;;35.55;27.15;;;11.50;97.60;;;;;;5034975;28;20046;-64
2022/01/03 02:17:47;;;;;;;36.80;26.75;;;11.60;97.70;;;;;;5035697;28;20100;-63
2022/01/03 02:20:29;;;;;;;35.08;27.42;;;11.60;97.80;;;;;;5035471;28;20149;-63
2022/01/03 02:22:55;;;;;;;32.70;25.83;;;11.60;97.70;;;;;;5036072;28;20415;-67
2022/01/03 02:25:22;;;;;;;35.45;26.60;;;11.50;97.60;;;;;;5035454;28;20021;-65
2022/01/03 02:27:50;;;;;;;36.47;26.80;;;11.50;97.70;;;;;;5035140;28;20095;-64
2022/01/03 02:30:28;;;;;;;33.70;25.20;;;11.50;97.70;;;;;;5034986;28;20029;-65
2022/01/03 02:33:07;;;;;;;33.33;26.20;;;11.60;97.60;;;;;;5035347;28;20104;-82
2022/01/03 02:35:38;;;;;;;36.08;26.80;;;11.60;97.70;;;;;;5037759;28;20072;-82
2022/01/03 02:38:04;;;;;;;35.35;25.75;;;11.60;97.80;;;;;;5017268;28;20124;-77
2022/01/03 02:40:31;;;;;;;34.00;25.73;;;11.70;97.70;;;;;;5034701;28;20490;-81
2022/01/03 02:43:01;;;;;;;37.33;24.10;;;11.70;97.80;;;;;;5017527;28;20197;-78
2022/01/03 02:45:28;;;;;;;33.83;25.58;;;11.70;97.50;;;;;;5035133;28;20101;-80
2022/01/03 02:48:00;;;;;;;32.53;25.02;;;11.60;97.40;;;;;;5034908;28;20104;-84
2022/01/03 02:50:29;;;;;;;28.90;23.02;;;11.60;97.70;;;;;;5017060;28;20030;-80
2022/01/03 02:52:55;;;;;;;30.38;24.05;;;11.70;97.70;;;;;;5034755;28;20046;-81
2022/01/03 02:55:22;;;;;;;32.17;24.42;;;11.70;97.50;;;;;;5017415;28;20044;-79
2022/01/03 02:57:50;;;;;;;32.70;24.48;;;11.70;97.60;;;;;;5034630;28;20407;-76
2022/01/03 03:00:24;;;;;;;30.45;24.30;;;11.70;97.60;;;;;;5034584;28;20548;-79
2022/01/03 03:02:50;;;;;;;32.75;24.52;;;11.70;97.40;;;;;;5034573;28;20033;-71
2022/01/03 03:05:17;;;;;;;29.20;23.35;;;11.70;97.40;;;;;;5034950;28;20029;-66
2022/01/03 03:07:45;;;;;;;31.15;24.00;;;11.70;97.40;;;;;;5034646;28;20026;-82
2022/01/03 03:10:14;;;;;;;29.65;22.83;;;11.80;97.50;;;;;;5017179;28;20037;-77
2022/01/03 03:12:41;;;;;;;32.42;25.10;;;11.70;97.30;;;;;;5034781;28;20462;-84
2022/01/03 03:15:12;;;;;;;30.65;23.23;;;11.70;97.40;;;;;;5034856;28;20030;-82
2022/01/03 03:17:41;;;;;;;32.28;24.20;;;11.60;97.10;;;;;;5017483;28;20048;-77
2022/01/03 03:20:11;;;;;;;32.13;23.85;;;11.60;97.30;;;;;;5035482;28;20474;-78
2022/01/03 03:22:40;;;;;;;31.40;24.25;;;11.60;97.30;;;;;;5035028;28;20042;-82
2022/01/03 03:25:10;;;;;;;30.95;24.77;;;11.60;97.40;;;;;;5018102;28;20021;-80
2022/01/03 03:27:43;;;;;;;31.42;24.48;;;11.60;97.30;;;;;;5035307;28;20029;-83
2022/01/03 03:30:31;;;;;;;29.88;22.70;;;11.60;97.40;;;;;;5035142;28;20029;-80
2022/01/03 03:33:03;;;;;;;29.23;22.45;;;11.60;97.40;;;;;;5038488;28;20352;-82
2022/01/03 03:35:29;;;;;;;35.28;24.55;;;11.60;97.40;;;;;;5038159;28;20017;-78
2022/01/03 03:37:55;;;;;;;32.30;24.35;;;11.60;97.70;;;;;;5036329;28;20033;-65
2022/01/03 03:40:22;;;;;;;30.02;23.35;;;11.60;97.50;;;;;;5035487;28;20152;-64
2022/01/03 03:42:48;;;;;;;32.47;23.75;;;11.60;97.30;;;;;;5017217;28;20037;-65
2022/01/03 03:45:15;;;;;;;31.13;21.90;;;11.60;97.60;;;;;;5035587;28;20022;-69
2022/01/03 03:47:42;;;;;;;27.00;21.30;;;11.60;97.60;;;;;;5035014;28;20053;-64
2022/01/03 03:50:09;;;;;;;34.00;24.60;;;11.60;97.60;;;;;;5035624;28;20029;-63
2022/01/03 03:52:34;;;;;;;31.15;23.17;;;11.60;97.40;;;;;;5034951;28;20107;-65
2022/01/03 03:55:00;;;;;;;29.77;23.33;;;11.60;97.40;;;;;;5035521;28;20038;-66
2022/01/03 03:57:26;;;;;;;30.27;23.23;;;11.60;97.40;;;;;;5034190;28;20049;-63
2022/01/03 03:59:52;;;;;;;30.85;23.73;;;11.60;97.30;;;;;;5033670;28;20021;-64
2022/01/03 04:02:19;;;;;;;29.70;22.98;;;11.50;97.40;;;;;;5033905;28;20068;-68
2022/01/03 04:04:45;;;;;;;32.88;24.02;;;11.50;97.40;;;;;;5016040;28;20078;-65
2022/01/03 04:07:10;;;;;;;30.65;23.15;;;11.50;97.60;;;;;;5033023;28;20025;-64
2022/01/03 04:09:39;;;;;;;30.40;24.17;;;11.60;97.60;;;;;;5032711;28;20336;-64
2022/01/03 04:12:05;;;;;;;34.08;24.45;;;11.60;97.40;;;;;;5033005;28;20147;-63
2022/01/03 04:14:31;;;;;;;32.83;24.00;;;11.60;97.50;;;;;;5032738;28;20040;-63
2022/01/03 04:16:57;;;;;;;31.35;23.10;;;11.60;97.50;;;;;;5032714;28;20029;-68
2022/01/03 04:19:22;;;;;;;28.23;22.88;;;11.60;97.50;;;;;;5032853;28;20025;-63
2022/01/03 04:21:48;;;;;;;30.92;22.60;;;11.60;97.40;;;;;;5032673;28;20451;-67
2022/01/03 04:24:14;;;;;;;30.60;22.88;;;11.60;97.50;;;;;;5032831;28;20052;-63
2022/01/03 04:26:40;;;;;;;31.45;24.05;;;11.60;97.50;;;;;;5032676;28;20091;-63
2022/01/03 04:29:07;;;;;;;31.42;23.55;;;11.60;97.50;;;;;;5032564;28;20029;-66
2022/01/03 04:31:33;;;;;;;29.98;23.83;;;11.50;97.50;;;;;;5014890;28;20084;-64
2022/01/03 04:33:59;;;;;;;33.83;23.65;;;11.50;97.60;;;;;;5032713;28;20032;-63
2022/01/03 04:36:26;;;;;;;29.98;22.77;;;11.50;97.70;;;;;;5032623;28;20068;-65
2022/01/03 04:38:52;;;;;;;29.75;22.95;;;11.50;97.80;;;;;;5032577;28;20036;-64
2022/01/03 04:41:18;;;;;;;31.75;24.00;;;11.50;97.70;;;;;;5015154;28;20021;-66
2022/01/03 04:43:44;;;;;;;28.85;24.00;;;11.50;97.80;;;;;;5032554;28;20032;-63
2022/01/03 04:46:11;;;;;;;32.13;25.45;;;11.40;97.90;;;;;;5032558;28;20379;-64
2022/01/03 04:48:38;;;;;;;35.53;24.55;;;11.40;98.00;;;;;;5032669;28;20032;-66
2022/01/03 04:51:05;;;;;;;32.35;24.20;;;11.40;98.00;;;;;;5032643;28;20080;-65
2022/01/03 04:53:36;;;;;;;32.78;25.00;;;11.40;98.10;;;;;;5032290;28;20049;-70
2022/01/03 04:56:02;;;;;;;31.52;24.55;;;11.30;98.20;;;;;;5032220;28;20115;-65
2022/01/03 04:58:27;;;;;;;32.38;25.23;;;11.30;98.30;;;;;;5014856;28;20386;-64
2022/01/03 05:00:53;;;;;;;32.97;24.88;;;11.20;98.40;;;;;;5032568;28;20032;-64
2022/01/03 05:03:19;;;;;;;31.77;24.48;;;11.20;98.60;;;;;;5032121;28;20037;-63
2022/01/03 05:05:45;;;;;;;32.70;25.20;;;11.10;98.60;;;;;;5032598;28;20425;-66
2022/01/03 05:08:11;;;;;;;30.58;24.98;;;11.10;98.70;;;;;;5031963;28;20053;-65
2022/01/03 05:10:39;;;;;;;36.97;26.40;;;11.00;98.80;;;;;;5014908;28;20060;-64
2022/01/03 05:13:05;;;;;;;34.65;26.23;;;11.00;98.90;;;;;;5032325;28;20036;-63
2022/01/03 05:15:32;;;;;;;34.72;26.08;;;11.00;99.10;;;;;;5032135;28;20104;-64
2022/01/03 05:17:59;;;;;;;33.83;25.20;;;11.00;99.10;;;;;;5032035;28;20053;-65
2022/01/03 05:20:24;;;;;;;31.20;25.17;;;11.00;99.10;;;;;;5032175;28;20475;-69
2022/01/03 05:22:50;;;;;;;35.97;25.83;;;11.10;99.20;;;;;;5032095;28;20084;-64
2022/01/03 05:25:16;;;;;;;30.88;25.23;;;11.10;99.20;;;;;;5032235;28;20026;-63
2022/01/03 05:27:42;;;;;;;33.70;25.73;;;11.10;99.10;;;;;;5031919;28;20068;-64
2022/01/03 05:30:10;;;;;;;32.20;24.38;;;11.10;99.20;;;;;;5032046;28;20025;-64
2022/01/03 05:32:36;;;;;;;31.58;24.70;;;11.20;99.10;;;;;;5031828;28;20499;-68
2022/01/03 05:35:03;;;;;;;32.47;24.95;;;11.20;99.10;;;;;;5031724;28;20200;-64
2022/01/03 05:37:28;;;;;;;34.17;25.85;;;11.30;99.00;;;;;;5032309;28;20429;-65
2022/01/03 05:39:54;;;;;;;33.33;25.65;;;11.20;99.00;;;;;;5034352;28;20017;-64
2022/01/03 05:42:20;;;;;;;32.63;25.50;;;11.30;99.00;;;;;;5035560;28;20041;-67
2022/01/03 05:44:46;;;;;;;32.25;24.48;;;11.30;99.00;;;;;;5035347;28;20108;-66
2022/01/03 05:47:12;;;;;;;35.38;26.13;;;11.30;98.90;;;;;;5018496;28;20041;-64
2022/01/03 05:49:38;;;;;;;34.58;26.25;;;11.30;98.90;;;;;;5035170;28;20029;-64
2022/01/03 05:52:05;;;;;;;34.40;24.52;;;11.30;99.00;;;;;;5035032;28;20042;-68
2022/01/03 05:54:31;;;;;;;30.73;23.88;;;11.30;98.80;;;;;;5035287;28;20057;-63
2022/01/03 05:56:56;;;;;;;31.05;23.98;;;11.30;98.90;;;;;;5035163;28;20107;-64
2022/01/03 05:59:23;;;;;;;31.63;24.13;;;11.20;98.90;;;;;;5035103;28;20037;-63
2022/01/03 06:01:49;;;;;;;30.55;24.23;;;11.10;99.00;;;;;;5035049;28;20033;-71
2022/01/03 06:06:55;;;;;;;32.00;24.27;;;11.10;99.20;;;;;;5035166;28;20029;-66
2022/01/03 06:09:22;;;;;;;34.92;24.40;;;11.10;99.30;;;;;;5034975;28;20108;-64
2022/01/03 06:11:53;;;;;;;34.28;24.83;;;11.00;99.20;;;;;;5017386;28;20033;-64
2022/01/03 06:14:20;;;;;;;31.88;23.83;;;11.00;99.30;;;;;;5035030;28;20024;-63
2022/01/03 06:16:48;;;;;;;33.53;24.55;;;11.00;99.40;;;;;;5034630;28;20033;-64
2022/01/03 06:19:15;;;;;;;33.05;23.98;;;11.00;99.40;;;;;;5034644;28;20018;-64
2022/01/03 06:21:41;;;;;;;34.10;24.63;;;11.00;99.40;;;;;;5034483;28;20501;-63
2022/01/03 06:24:11;;;;;;;32.67;23.13;;;11.00;99.40;;;;;;5035005;28;20026;-64
2022/01/03 06:26:41;;;;;;;29.30;22.77;;;10.90;99.40;;;;;;5034752;28;20029;-64
2022/01/03 06:29:08;;;;;;;32.20;23.65;;;10.90;99.30;;;;;;5034283;28;20029;-64
2022/01/03 06:31:35;;;;;;;35.65;24.75;;;10.90;99.50;;;;;;5034894;28;20061;-64
2022/01/03 06:34:01;;;;;;;34.22;24.15;;;10.90;99.50;;;;;;5034389;28;20048;-65
2022/01/03 06:36:28;;;;;;;37.17;24.83;;;10.90;99.70;;;;;;5034475;28;20025;-68
2022/01/03 06:38:56;;;;;;;30.63;23.55;;;11.00;99.50;;;;;;5034418;28;20044;-65
2022/01/03 06:41:24;;;;;;;29.58;22.90;;;11.00;99.40;;;;;;5034708;28;20041;-64
2022/01/03 06:43:50;;;;;;;32.60;23.90;;;11.00;99.50;;;;;;5034775;28;20379;-64
2022/01/03 06:46:16;;;;;;;35.42;24.40;;;11.00;99.40;;;;;;5017212;28;20438;-65
2022/01/03 06:48:46;;;;;;;32.47;23.85;;;11.00;99.50;;;;;;5035100;28;20021;-64
2022/01/03 06:51:13;;;;;;;30.20;23.02;;;11.00;99.30;;;;;;5033959;28;20033;-64
2022/01/03 06:53:40;;;;;;;35.55;25.63;;;11.10;99.30;;;;;;5034282;28;20044;-67
2022/01/03 06:56:06;;;;;;;32.63;23.75;;;11.10;99.20;;;;;;5034348;28;20122;-64
2022/01/03 06:58:32;;;;;;;34.85;23.83;;;11.20;99.20;;;;;;5033761;28;20017;-64
2022/01/03 07:00:59;;;;;;;32.90;23.67;;;11.20;99.10;;;;;;5033802;28;20042;-64
2022/01/03 07:03:25;;;;;;;30.75;22.25;;;11.20;99.20;;;;;;5034079;28;20428;-66
2022/01/03 07:05:51;;;;;;;33.20;23.15;;;11.30;99.10;;;;;;5033663;28;20055;-64
2022/01/03 07:08:20;;;;;;;40.65;22.65;;;11.30;99.10;;;;;;5033500;28;20415;-65
2022/01/03 07:10:46;;;;;;;33.45;23.27;;;11.30;99.00;;;;;;5034111;28;20368;-64
2022/01/03 07:13:11;;;;;;;30.27;23.17;;;11.30;98.90;;;;;;5033390;28;20026;-65
2022/01/03 07:21:07;;;;;;;31.17;21.30;;;11.40;98.80;;;;;;5033966;28;20458;-64
2022/01/03 07:23:34;;;;;;;29.38;21.33;;;11.50;98.70;;;;;;5033524;28;20412;-65
2022/01/03 07:26:02;;;;;;;28.02;21.02;;;11.60;98.70;;;;;;5033524;28;20066;-64
2022/01/03 07:28:28;;;;;;;33.25;22.35;;;11.60;98.50;;;;;;5033132;28;20046;-68
2022/01/03 07:30:54;;;;;;;25.08;18.15;;;11.70;98.60;;;;;;5033199;28;20018;-63
2022/01/03 07:33:19;;;;;;;22.60;16.50;;;11.80;98.40;;;;;;5015060;28;20423;-64
2022/01/03 07:35:46;;;;;;;25.00;16.10;;;11.80;98.20;;;;;;5032234;28;20053;-67
2022/01/03 07:38:11;;;;;;;32.28;18.90;;;11.80;98.10;;;;;;5033182;28;20472;-64
2022/01/03 07:40:37;;;;;;;29.92;18.33;;;11.90;98.00;;;;;;5033150;28;20262;-64
2022/01/03 07:43:03;;;;;;;24.13;17.38;;;12.00;97.80;;;;;;5032983;28;20034;-65
2022/01/03 07:45:29;;;;;;;20.55;15.82;;;12.10;97.70;;;;;;5032812;28;20387;-65
2022/01/03 07:47:55;;;;;;;25.83;16.83;;;12.20;97.20;;;;;;5032193;28;20042;-64
2022/01/03 07:50:21;;;;;;;25.50;19.10;;;12.30;97.20;;;;;;5033415;28;20407;-64
2022/01/03 07:52:46;;;;;;;28.02;20.17;;;12.40;96.50;;;;;;5014935;28;20088;-66
2022/01/03 07:55:15;;;;;;;28.27;19.80;;;12.50;96.30;;;;;;5033105;28;20040;-65
2022/01/03 07:57:42;;;;;;;28.98;21.23;;;12.50;96.40;;;;;;5032639;28;20037;-64
2022/01/03 08:00:11;;;;;;;29.60;21.30;;;12.50;96.20;;;;;;5032790;28;20025;-64
2022/01/03 08:02:38;;;;;;;31.77;21.70;;;12.60;96.30;;;;;;5031634;28;20200;-64
2022/01/03 08:05:06;;;;;;;33.65;21.98;;;12.60;96.10;;;;;;5032635;28;20031;-64
2022/01/03 08:07:32;;;;;;;34.45;22.05;;;12.70;96.10;;;;;;5032417;28;20407;-64
2022/01/03 08:09:59;;;;;;;33.47;21.38;;;12.60;96.00;;;;;;5032739;28;20021;-65
2022/01/03 08:12:25;;;;;;;29.73;21.15;;;12.60;96.10;;;;;;5015153;28;20038;-67
2022/01/03 08:14:52;;;;;;;36.78;22.48;;;12.60;96.00;;;;;;5032532;28;20029;-64
2022/01/03 08:17:17;;;;;;;27.05;19.80;;;12.60;96.00;;;;;;5032605;28;20036;-64
2022/01/03 08:19:43;;;;;;;25.92;18.05;;;12.50;95.90;;;;;;5032398;28;20029;-67
2022/01/03 08:22:09;;;;;;;26.60;19.75;;;12.40;95.70;;;;;;5014579;28;20510;-64
2022/01/03 08:24:34;;;;;;;26.92;18.92;;;12.30;95.80;;;;;;5032492;28;20113;-65
2022/01/03 08:27:01;;;;;;;52.42;20.15;;;12.30;95.90;;;;;;5032263;28;20421;-64
2022/01/03 08:29:26;;;;;;;26.67;18.13;;;12.20;95.70;;;;;;5031797;28;20041;-65
2022/01/03 08:31:52;;;;;;;23.30;16.80;;;12.20;95.90;;;;;;5032323;28;20071;-65
2022/01/03 08:34:18;;;;;;;23.67;17.50;;;12.30;95.80;;;;;;5032267;28;20103;-64
2022/01/03 08:36:44;;;;;;;27.75;18.83;;;12.40;95.70;;;;;;5032074;28;20095;-66
2022/01/03 08:39:10;;;;;;;38.05;17.58;;;12.50;95.70;;;;;;5014373;28;20085;-65
2022/01/03 08:41:36;;;;;;;34.17;18.65;;;12.50;95.50;;;;;;5032100;28;20024;-67
2022/01/03 08:44:02;;;;;;;59.75;19.38;;;12.70;95.50;;;;;;5032058;28;20033;-65
2022/01/03 08:46:28;;;;;;;45.42;17.73;;;12.80;95.20;;;;;;5032037;28;20029;-63
2022/01/03 08:48:54;;;;;;;28.52;16.77;;;12.80;95.10;;;;;;5031811;28;20175;-64
2022/01/03 08:51:21;;;;;;;32.80;17.75;;;12.80;95.00;;;;;;5032270;28;20024;-66
2022/01/03 08:53:47;;;;;;;25.25;16.45;;;12.80;95.10;;;;;;5032485;28;20054;-65
2022/01/03 08:56:13;;;;;;;27.80;16.77;;;12.80;94.90;;;;;;5032485;28;20380;-64
2022/01/03 08:58:41;;;;;;;23.38;17.00;;;12.80;95.00;;;;;;5015655;28;20030;-65
2022/01/03 09:01:08;;;;;;;27.83;18.05;;;12.80;94.80;;;;;;5036200;28;20422;-65
2022/01/03 09:03:36;;;;;;;29.77;17.40;;;12.70;94.90;;;;;;5032750;28;20046;-64
2022/01/03 09:06:06;;;;;;;24.30;18.20;;;12.70;94.90;;;;;;5014432;28;20029;-65
2022/01/03 09:08:32;;;;;;;26.70;18.00;;;12.60;94.90;;;;;;5031910;28;20030;-68
2022/01/03 09:10:57;;;;;;;25.83;17.40;;;12.60;95.00;;;;;;5031749;28;20048;-65
2022/01/03 09:13:23;;;;;;;28.88;17.80;;;12.60;95.10;;;;;;5032008;28;20037;-65
2022/01/03 09:15:50;;;;;;;28.00;18.83;;;12.60;95.10;;;;;;5035487;28;20066;-66
2022/01/03 09:18:19;;;;;;;28.10;17.58;;;12.70;95.20;;;;;;5017501;28;20034;-67
2022/01/03 09:20:47;;;;;;;33.15;23.00;;;12.70;95.00;;;;;;5035543;28;20105;-66
2022/01/03 09:23:18;;;;;;;25.15;18.13;;;12.80;95.10;;;;;;5017623;28;20025;-65
2022/01/03 09:31:13;;;;;;;34.88;20.88;;;13.10;94.90;;;;;;5035282;28;20048;-64
2022/01/03 09:33:38;;;;;;;32.15;18.27;;;13.20;94.90;;;;;;5035010;28;20104;-64
2022/01/03 09:36:04;;;;;;;33.50;19.55;;;13.30;94.90;;;;;;5034971;28;20056;-66
2022/01/03 09:38:34;;;;;;;26.75;17.98;;;13.30;94.80;;;;;;5035113;28;20025;-67
2022/01/03 09:41:03;;;;;;;29.08;18.80;;;13.40;94.60;;;;;;5035100;28;20033;-66
2022/01/03 09:43:36;;;;;;;23.30;16.88;;;13.50;94.60;;;;;;5016605;28;20068;-66
2022/01/03 09:46:03;;;;;;;25.05;17.50;;;13.50;94.40;;;;;;5000771;28;20026;-66
2022/01/03 09:48:30;;;;;;;24.25;17.00;;;13.60;94.20;;;;;;5034531;28;20117;-66
2022/01/03 09:50:57;;;;;;;21.90;15.02;;;13.80;94.00;;;;;;5034492;28;20026;-65
2022/01/03 09:53:26;;;;;;;20.85;14.73;;;13.90;93.60;;;;;;5034357;28;20053;-64
2022/01/03 09:55:52;;;;;;;22.75;14.95;;;14.00;93.20;;;;;;5034735;28;20041;-68
2022/01/03 09:58:18;;;;;;;18.92;15.25;;;14.10;93.00;;;;;;5034322;28;20025;-66
2022/01/03 10:00:44;;;;;;;22.00;15.00;;;14.20;93.00;;;;;;5033993;28;20402;-65
2022/01/03 10:03:10;;;;;;;22.80;16.17;;;14.20;93.00;;;;;;5034166;28;20467;-68
2022/01/03 10:05:36;;;;;;;21.40;15.00;;;14.30;93.00;;;;;;5034613;28;20375;-66
2022/01/03 10:08:04;;;;;;;21.83;16.05;;;14.40;92.90;;;;;;5033961;28;20037;-65
2022/01/03 10:10:30;;;;;;;24.23;16.50;;;14.50;92.90;;;;;;5033950;28;20025;-69
2022/01/03 10:12:57;;;;;;;24.02;15.30;;;14.50;92.80;;;;;;5016767;28;20428;-65
2022/01/03 10:15:23;;;;;;;22.13;15.75;;;14.60;92.70;;;;;;5034056;28;20030;-67
2022/01/03 10:17:51;;;;;;;20.73;15.52;;;14.60;92.70;;;;;;5033944;28;20022;-66
2022/01/03 10:20:17;;;;;;;28.05;16.15;;;14.70;92.60;;;;;;5033864;28;20172;-65
2022/01/03 10:22:42;;;;;;;21.77;15.13;;;14.80;92.50;;;;;;5015576;28;20139;-66
2022/01/03 10:25:18;;;;;;;19.23;14.23;;;14.90;92.30;;;;;;5033876;28;20021;-65
2022/01/03 10:27:54;;;;;;;16.98;13.98;;;15.00;92.20;;;;;;5033866;28;20053;-65
2022/01/03 10:30:45;;;;;;;23.40;14.75;;;15.10;92.10;;;;;;5033908;28;20156;-66
2022/01/03 10:33:14;;;;;;;19.02;13.50;;;15.30;91.80;;;;;;5015862;28;20033;-65
2022/01/03 10:35:58;;;;;;;19.17;12.70;;;15.40;91.70;;;;;;5033562;28;20022;-66
2022/01/03 10:38:40;;;;;;;15.63;11.63;;;15.40;91.50;;;;;;5033649;28;20060;-63
2022/01/03 10:41:21;;;;;;;18.63;12.15;;;15.40;91.60;;;;;;5033588;28;20021;-67
2022/01/03 10:43:53;;;;;;;15.05;11.95;;;15.50;91.30;;;;;;5016077;28;20420;-65
2022/01/03 10:46:31;;;;;;;17.15;11.70;;;15.60;91.60;;;;;;5033158;28;20079;-67
2022/01/03 10:49:18;;;;;;;17.23;11.48;;;15.60;91.60;;;;;;5033553;28;20045;-65
2022/01/03 10:51:46;;;;;;;18.98;13.57;;;15.60;91.50;;;;;;5032897;28;20009;-66
2022/01/03 10:54:19;;;;;;;21.13;12.77;;;15.50;91.60;;;;;;5033561;28;20111;-65
2022/01/03 10:56:50;;;;;;;15.77;11.85;;;15.40;91.80;;;;;;5015529;28;20053;-66
2022/01/03 10:59:22;;;;;;;19.42;13.18;;;15.30;91.80;;;;;;5033391;28;20029;-64
2022/01/03 11:02:11;;;;;;;17.05;13.30;;;15.10;91.80;;;;;;5033213;28;20025;-67
2022/01/03 11:05:10;;;;;;;19.75;12.85;;;15.10;92.10;;;;;;5033442;28;20443;-67
2022/01/03 11:13:08;;;;;;;19.27;13.50;;;15.10;92.40;;;;;;5033354;28;20486;-65
2022/01/03 11:15:37;;;;;;;21.65;13.65;;;15.20;92.50;;;;;;5033297;28;20025;-65
2022/01/03 11:18:09;;;;;;;21.80;12.82;;;15.20;92.50;;;;;;5033085;28;20049;-67
2022/01/03 11:20:37;;;;;;;15.90;12.07;;;15.20;92.50;;;;;;5032745;28;20491;-66
2022/01/03 11:23:03;;;;;;;17.83;12.63;;;15.30;92.60;;;;;;5032801;28;20146;-65
2022/01/03 11:25:30;;;;;;;20.42;12.63;;;15.20;92.70;;;;;;5032878;28;20032;-66
2022/01/03 11:27:56;;;;;;;28.45;13.38;;;15.20;92.90;;;;;;5032643;28;20029;-65
2022/01/03 11:30:24;;;;;;;22.05;12.80;;;15.10;93.00;;;;;;5032839;28;20168;-65
2022/01/03 11:32:50;;;;;;;20.58;13.50;;;15.20;93.20;;;;;;5032580;28;20114;-65
2022/01/03 11:35:18;;;;;;;21.88;12.40;;;15.10;93.10;;;;;;5033016;28;20037;-65
2022/01/03 11:37:48;;;;;;;30.50;12.63;;;15.10;93.30;;;;;;4998042;28;20036;-65
2022/01/03 11:40:16;;;;;;;22.35;13.00;;;15.00;93.30;;;;;;5014611;28;20060;-67
2022/01/03 11:42:44;;;;;;;21.08;12.50;;;15.00;93.50;;;;;;5032338;28;20029;-65
2022/01/03 11:45:10;;;;;;;23.45;13.13;;;15.00;93.70;;;;;;5032227;28;20120;-69
2022/01/03 11:47:38;;;;;;;25.90;14.05;;;15.00;93.70;;;;;;5032451;28;20037;-66
2022/01/03 11:50:09;;;;;;;22.88;14.80;;;15.00;93.80;;;;;;5046115;23;20053;-71
2022/01/03 11:52:43;;;;;;;23.92;13.23;;;15.10;94.00;;;;;;5032675;28;20032;-66
2022/01/03 11:55:11;;;;;;;26.00;13.48;;;15.10;93.80;;;;;;5032745;28;20053;-67
2022/01/03 12:06:11;;;;;;;18.27;12.48;;;15.40;93.90;;;;;;5020185;28;20025;-70
2022/01/03 12:08:39;;;;;;;27.15;15.13;;;15.50;93.90;;;;;;5032304;28;20041;-67
2022/01/03 12:11:20;;;;;;;22.35;15.13;;;15.60;94.00;;;;;;5032236;28;20029;-66
2022/01/03 12:13:52;;;;;;;24.80;14.35;;;15.60;93.90;;;;;;5032483;28;20029;-72
2022/01/03 12:16:35;;;;;;;23.13;12.13;;;15.70;93.90;;;;;;5032010;28;20033;-68
2022/01/03 12:19:07;;;;;;;22.52;12.88;;;15.70;93.90;;;;;;5032123;28;20026;-68
2022/01/03 12:21:49;;;;;;;23.02;11.75;;;15.70;94.10;;;;;;5032439;28;20033;-66
2022/01/03 12:24:27;;;;;;;23.52;13.02;;;15.70;94.00;;;;;;5032345;28;20045;-66
2022/01/03 12:27:11;;;;;;;20.35;12.35;;;15.70;94.10;;;;;;5032431;28;20463;-70
2022/01/03 12:29:56;;;;;;;20.25;11.68;;;15.60;94.10;;;;;;5032376;28;20034;-67
2022/01/03 12:32:25;;;;;;;18.05;12.18;;;15.60;94.20;;;;;;5032085;28;20026;-67
2022/01/03 12:35:24;;;;;;;19.10;11.93;;;15.50;94.60;;;;;;5032231;28;20027;-69
2022/01/03 12:37:50;;;;;;;24.65;13.20;;;15.50;94.50;;;;;;5031885;28;20045;-67
2022/01/03 12:40:28;;;;;;;20.42;12.23;;;15.50;94.50;;;;;;5031866;28;20041;-68
2022/01/03 12:42:58;;;;;;;16.95;11.52;;;15.50;94.60;;;;;;5014268;28;20475;-73
2022/01/03 12:45:30;;;;;;;18.63;11.68;;;15.50;94.70;;;;;;5014350;28;20037;-67
2022/01/03 12:48:08;;;;;;;14.77;10.20;;;15.50;94.80;;;;;;5032268;28;20037;-72
2022/01/03 12:50:47;;;;;;;15.73;9.98;;;15.50;94.90;;;;;;5035893;28;20045;-68
2022/01/03 12:53:27;;;;;;;20.83;10.55;;;15.50;95.00;;;;;;5020057;28;20475;-66
2022/01/03 12:55:55;;;;;;;17.23;9.40;;;15.50;95.00;;;;;;5035907;28;20029;-71
2022/01/03 12:58:20;;;;;;;16.38;9.70;;;15.50;94.90;;;;;;5035757;28;20038;-70
2022/01/03 13:01:02;;;;;;;17.45;10.45;;;15.50;95.00;;;;;;5036056;28;20032;-72
2022/01/03 13:03:40;;;;;;;19.27;10.55;;;15.50;95.10;;;;;;5035545;28;20025;-68
2022/01/03 13:06:12;;;;;;;16.85;10.07;;;15.50;95.20;;;;;;5035828;28;20415;-72